createdAt,value
2022-12-15T00:01:40.345Z,8.18
2022-12-15T00:04:06.938Z,7.13
2022-12-15T00:06:33.679Z,8.25
2022-12-15T00:09:00.138Z,8.68
2022-12-15T00:11:26.641Z,8.65
2022-12-15T00:13:53.119Z,9.02
2022-12-15T00:16:19.694Z,8.80
2022-12-15T00:18:46.277Z,8.25
2022-12-15T00:21:12.811Z,7.53
2022-12-15T00:23:39.278Z,8.57
2022-12-15T00:26:05.838Z,8.00
2022-12-15T00:28:32.341Z,8.48
2022-12-15T00:31:02.573Z,7.57
2022-12-15T00:33:29.729Z,7.90
2022-12-15T00:35:59.184Z,7.53
2022-12-15T00:38:25.679Z,7.88
2022-12-15T00:40:52.141Z,7.85
2022-12-15T00:43:18.585Z,8.15
2022-12-15T00:45:45.024Z,7.68
2022-12-15T00:48:11.514Z,9.13
2022-12-15T00:50:39.123Z,7.45
2022-12-15T00:53:05.637Z,7.15
2022-12-15T00:55:32.776Z,7.82
2022-12-15T00:57:59.290Z,6.53
2022-12-15T01:00:26.570Z,6.97
2022-12-15T01:02:53.287Z,7.10
2022-12-15T01:05:19.857Z,7.32
2022-12-15T01:07:49.818Z,6.75
2022-12-15T01:10:17.417Z,6.57
2022-12-15T01:12:44.240Z,6.28
2022-12-15T01:15:10.835Z,6.68
2022-12-15T01:17:37.292Z,7.78
2022-12-15T01:20:05.530Z,5.85
2022-12-15T01:22:31.969Z,6.70
2022-12-15T01:24:58.468Z,6.78
2022-12-15T01:27:24.965Z,5.45
2022-12-15T01:29:51.484Z,6.57
2022-12-15T01:32:17.941Z,6.40
2022-12-15T01:34:44.429Z,6.05
2022-12-15T01:37:10.926Z,6.13
2022-12-15T01:39:37.392Z,6.43
2022-12-15T01:42:03.935Z,6.32
2022-12-15T01:44:30.420Z,6.50
2022-12-15T01:46:57.220Z,6.05
2022-12-15T01:49:28.212Z,6.43
2022-12-15T01:51:59.221Z,6.18
2022-12-15T01:54:37.509Z,6.85
2022-12-15T01:57:08.864Z,7.05
2022-12-15T01:59:40.650Z,6.93
2022-12-15T02:02:07.277Z,6.13
2022-12-15T02:04:34.161Z,6.32
2022-12-15T02:07:00.680Z,5.93
2022-12-15T02:09:28.312Z,6.85
2022-12-15T02:12:25.638Z,6.55
2022-12-15T02:15:30.039Z,6.20
2022-12-15T02:17:59.620Z,6.10
2022-12-15T02:20:33.662Z,5.78
2022-12-15T02:23:08.911Z,6.03
2022-12-15T02:26:23.193Z,5.65
2022-12-15T02:29:08.546Z,6.32
2022-12-15T02:31:41.508Z,6.50
2022-12-15T02:34:26.613Z,6.53
2022-12-15T02:37:02.587Z,6.45
2022-12-15T02:39:29.140Z,7.65
2022-12-15T02:41:55.587Z,7.63
2022-12-15T02:44:24.120Z,7.70
2022-12-15T02:46:59.233Z,8.30
2022-12-15T02:49:37.712Z,6.60
2022-12-15T02:52:25.581Z,6.60
2022-12-15T02:55:08.302Z,6.90
2022-12-15T02:58:01.884Z,6.82
2022-12-15T03:00:33.256Z,6.80
2022-12-15T03:03:00.088Z,6.45
2022-12-15T03:05:26.773Z,6.97
2022-12-15T03:07:54.472Z,7.07
2022-12-15T03:10:24.298Z,7.50
2022-12-15T03:12:51.377Z,6.63
2022-12-15T03:15:19.329Z,8.52
2022-12-15T03:17:46.113Z,7.93
2022-12-15T03:20:12.676Z,6.80
2022-12-15T03:22:39.718Z,7.80
2022-12-15T03:25:06.694Z,7.68
2022-12-15T03:27:33.209Z,7.03
2022-12-15T03:29:59.677Z,6.82
2022-12-15T03:32:26.166Z,7.45
2022-12-15T03:34:52.614Z,7.30
2022-12-15T03:37:19.162Z,6.90
2022-12-15T03:39:45.626Z,7.32
2022-12-15T03:42:12.155Z,7.13
2022-12-15T03:44:38.653Z,7.45
2022-12-15T03:47:05.193Z,7.55
2022-12-15T03:49:31.650Z,7.10
2022-12-15T03:51:58.149Z,7.32
2022-12-15T03:54:24.655Z,7.22
2022-12-15T03:56:51.169Z,7.28
2022-12-15T03:59:18.967Z,7.88
2022-12-15T04:01:47.784Z,7.88
2022-12-15T04:04:14.746Z,7.55
2022-12-15T04:06:41.355Z,7.50
2022-12-15T04:09:07.821Z,7.80
2022-12-15T04:11:34.322Z,7.40
2022-12-15T04:14:00.799Z,7.85
2022-12-15T04:16:27.316Z,7.95
2022-12-15T04:18:53.813Z,6.57
2022-12-15T04:21:20.435Z,7.20
2022-12-15T04:23:46.887Z,7.15
2022-12-15T04:26:13.568Z,8.20
2022-12-15T04:28:40.112Z,7.80
2022-12-15T04:31:12.684Z,8.52
2022-12-15T04:33:42.257Z,7.90
2022-12-15T04:36:11.835Z,7.53
2022-12-15T04:38:40.586Z,7.40
2022-12-15T04:41:09.202Z,6.57
2022-12-15T04:43:35.699Z,7.10
2022-12-15T04:46:02.294Z,7.40
2022-12-15T04:48:28.806Z,7.22
2022-12-15T04:50:55.423Z,6.97
2022-12-15T04:53:22.208Z,7.00
2022-12-15T04:55:48.736Z,7.68
2022-12-15T04:58:15.185Z,7.55
2022-12-15T05:00:41.720Z,6.60
2022-12-15T05:03:11.324Z,6.93
2022-12-15T05:05:41.554Z,7.75
2022-12-15T05:08:07.980Z,7.00
2022-12-15T05:10:34.477Z,7.50
2022-12-15T05:13:05.857Z,6.88
2022-12-15T05:15:33.635Z,6.78
2022-12-15T05:18:00.154Z,7.43
2022-12-15T05:20:26.632Z,8.52
2022-12-15T05:22:54.730Z,7.22
2022-12-15T05:25:21.247Z,6.50
2022-12-15T05:27:47.724Z,6.35
2022-12-15T05:30:14.251Z,7.60
2022-12-15T05:32:40.724Z,7.47
2022-12-15T05:35:07.419Z,7.35
2022-12-15T05:37:33.876Z,7.20
2022-12-15T05:40:00.516Z,7.57
2022-12-15T05:42:26.979Z,8.23
2022-12-15T05:44:53.483Z,8.57
2022-12-15T05:47:19.954Z,8.57
2022-12-15T05:49:46.471Z,8.73
2022-12-15T05:52:12.982Z,8.23
2022-12-15T05:54:39.508Z,7.90
2022-12-15T05:57:05.996Z,7.90
2022-12-15T05:59:32.501Z,7.60
2022-12-15T06:01:59.195Z,8.48
2022-12-15T06:04:25.846Z,8.45
2022-12-15T06:06:52.493Z,8.80
2022-12-15T06:09:19.030Z,8.82
2022-12-15T06:11:45.563Z,8.73
2022-12-15T06:14:12.051Z,8.55
2022-12-15T06:16:50.201Z,8.50
2022-12-15T06:19:17.771Z,8.60
2022-12-15T06:21:44.244Z,8.43
2022-12-15T06:24:10.751Z,9.32
2022-12-15T06:26:39.207Z,9.95
2022-12-15T06:29:08.124Z,10.50
2022-12-15T06:31:35.384Z,9.32
2022-12-15T06:34:05.608Z,8.95
2022-12-15T06:36:32.162Z,9.25
2022-12-15T06:39:03.844Z,9.82
2022-12-15T06:43:58.485Z,8.02
2022-12-15T06:46:26.958Z,9.02
2022-12-15T06:48:53.838Z,8.65
2022-12-15T06:51:20.717Z,8.82
2022-12-15T06:53:47.513Z,8.25
2022-12-15T06:56:19.719Z,8.93
2022-12-15T06:58:50.876Z,8.55
2022-12-15T07:01:18.660Z,8.10
2022-12-15T07:03:45.786Z,8.63
2022-12-15T07:06:15.084Z,8.23
2022-12-15T07:08:42.491Z,8.98
2022-12-15T07:11:12.566Z,8.90
2022-12-15T07:13:39.914Z,8.52
2022-12-15T07:16:07.600Z,8.80
2022-12-15T07:18:34.157Z,9.32
2022-12-15T07:21:06.205Z,9.75
2022-12-15T07:23:53.592Z,9.18
2022-12-15T07:26:20.259Z,7.65
2022-12-15T07:28:46.731Z,9.57
2022-12-15T07:31:13.339Z,8.60
2022-12-15T07:33:39.876Z,8.98
2022-12-15T07:36:06.677Z,8.70
2022-12-15T07:38:33.144Z,9.45
2022-12-15T07:41:01.266Z,9.32
2022-12-15T07:43:29.239Z,9.07
2022-12-15T07:45:56.167Z,9.45
2022-12-15T07:48:23.196Z,9.50
2022-12-15T07:50:50.345Z,9.20
2022-12-15T07:53:17.289Z,9.73
2022-12-15T07:56:06.268Z,9.20
2022-12-15T07:58:30.217Z,9.32
2022-12-15T08:01:01.749Z,9.18
2022-12-15T08:05:58.956Z,8.48
2022-12-15T08:08:30.443Z,9.70
2022-12-15T08:10:57.092Z,9.43
2022-12-15T08:13:52.926Z,9.57
2022-12-15T08:16:10.786Z,10.50
2022-12-15T08:18:37.352Z,8.73
2022-12-15T08:21:05.791Z,9.50
2022-12-15T08:23:33.409Z,9.95
2022-12-15T08:26:05.254Z,10.18
2022-12-15T08:28:33.088Z,9.13
2022-12-15T08:31:07.698Z,9.77
2022-12-15T08:33:35.130Z,9.75
2022-12-15T08:36:05.179Z,9.70
2022-12-15T08:38:32.347Z,9.57
2022-12-15T08:41:07.011Z,9.32
2022-12-15T08:43:33.608Z,8.98
2022-12-15T08:46:00.947Z,9.32
2022-12-15T08:48:27.469Z,10.27
2022-12-15T08:50:55.687Z,10.57
2022-12-15T08:53:31.377Z,9.02
2022-12-15T08:56:19.782Z,9.90
2022-12-15T08:58:48.471Z,9.93
2022-12-15T09:01:23.209Z,9.05
2022-12-15T09:03:52.322Z,9.68
2022-12-15T09:06:22.429Z,10.20
2022-12-15T09:08:50.474Z,10.45
2022-12-15T09:11:17.439Z,9.48
2022-12-15T09:13:43.899Z,10.13
2022-12-15T09:16:15.649Z,11.00
2022-12-15T09:18:43.854Z,11.88
2022-12-15T09:21:11.613Z,10.55
2022-12-15T09:23:38.598Z,10.85
2022-12-15T09:26:15.057Z,10.68
2022-12-15T09:28:42.305Z,11.30
2022-12-15T09:31:12.239Z,11.35
2022-12-15T09:33:40.102Z,10.57
2022-12-15T09:36:06.999Z,10.10
2022-12-15T09:38:34.646Z,9.77
2022-12-15T09:41:08.980Z,10.80
2022-12-15T09:43:46.053Z,9.45
2022-12-15T09:46:25.893Z,8.95
2022-12-15T09:48:57.087Z,9.52
2022-12-15T09:51:33.909Z,9.77
2022-12-15T09:54:00.993Z,9.70
2022-12-15T09:56:41.916Z,10.82
2022-12-15T09:59:18.499Z,9.57
2022-12-15T10:01:59.980Z,9.57
2022-12-15T10:04:55.852Z,9.75
2022-12-15T10:07:32.201Z,10.57
2022-12-15T10:09:58.779Z,9.88
2022-12-15T10:12:31.248Z,9.80
2022-12-15T10:15:07.187Z,10.07
2022-12-15T10:18:01.003Z,11.02
2022-12-15T10:20:30.051Z,9.68
2022-12-15T10:23:10.805Z,10.70
2022-12-15T10:25:37.307Z,10.43
2022-12-15T10:28:15.874Z,11.15
2022-12-15T10:31:01.005Z,13.32
2022-12-15T10:33:34.837Z,12.73
2022-12-15T10:36:01.784Z,11.13
2022-12-15T10:38:39.115Z,9.75
2022-12-15T10:41:10.862Z,9.70
2022-12-15T10:46:06.986Z,10.15
2022-12-15T10:48:33.524Z,9.80
2022-12-15T10:51:38.507Z,9.93
2022-12-15T10:54:06.359Z,8.80
2022-12-15T10:56:34.262Z,10.35
2022-12-15T10:59:22.255Z,10.50
2022-12-15T11:04:36.199Z,10.82
2022-12-15T11:07:04.119Z,10.02
2022-12-15T11:09:38.835Z,9.95
2022-12-15T11:12:24.716Z,7.28
2022-12-15T11:14:51.429Z,7.78
2022-12-15T11:17:22.345Z,7.90
2022-12-15T11:20:06.013Z,7.70
2022-12-15T11:22:42.074Z,7.38
2022-12-15T11:25:30.058Z,10.23
2022-12-15T11:27:59.932Z,9.10
2022-12-15T11:30:33.016Z,9.52
2022-12-15T11:33:01.236Z,11.82
2022-12-15T11:35:30.514Z,13.23
2022-12-15T11:38:20.692Z,13.98
2022-12-15T11:40:47.343Z,10.13
2022-12-15T11:43:38.471Z,10.32
2022-12-15T11:46:23.347Z,9.85
2022-12-15T11:49:30.322Z,9.57
2022-12-15T11:52:33.954Z,10.52
2022-12-15T11:55:16.031Z,9.23
2022-12-15T11:58:00.952Z,8.70
2022-12-15T12:00:34.703Z,10.18
2022-12-15T12:03:27.768Z,9.38
2022-12-15T12:06:31.487Z,8.70
2022-12-15T12:09:16.352Z,8.93
2022-12-15T12:11:57.047Z,8.85
2022-12-15T12:14:44.573Z,8.20
2022-12-15T12:17:30.152Z,9.05
2022-12-15T12:20:07.813Z,8.15
2022-12-15T12:22:46.076Z,9.02
2022-12-15T12:25:19.351Z,9.18
2022-12-15T12:27:48.629Z,9.02
2022-12-15T12:30:19.605Z,9.35
2022-12-15T12:32:50.544Z,9.05
2022-12-15T12:35:33.917Z,7.30
2022-12-15T12:38:04.881Z,9.38
2022-12-15T12:41:01.521Z,9.30
2022-12-15T12:43:37.983Z,9.70
2022-12-15T12:46:04.405Z,8.65
2022-12-15T12:48:45.892Z,8.00
2022-12-15T12:51:21.226Z,9.50
2022-12-15T12:53:48.752Z,9.02
2022-12-15T12:56:43.126Z,9.27
2022-12-15T12:59:37.303Z,8.02
2022-12-15T13:02:30.129Z,9.32
2022-12-15T13:05:29.062Z,9.45
2022-12-15T13:07:55.447Z,9.73
2022-12-15T13:10:24.627Z,9.05
2022-12-15T13:12:55.719Z,9.70
2022-12-15T13:15:28.189Z,8.75
2022-12-15T13:18:19.226Z,8.80
2022-12-15T13:20:50.489Z,8.37
2022-12-15T13:25:55.835Z,7.22
2022-12-15T13:28:35.048Z,8.80
2022-12-15T13:31:19.737Z,9.75
2022-12-15T13:33:49.501Z,8.73
2022-12-15T13:36:55.794Z,9.73
2022-12-15T13:39:22.419Z,13.25
2022-12-15T13:42:23.737Z,10.13
2022-12-15T13:44:41.144Z,7.97
2022-12-15T13:47:18.756Z,7.75
2022-12-15T13:50:15.201Z,7.72
2022-12-15T13:55:46.526Z,7.97
2022-12-15T13:58:19.958Z,9.05
2022-12-15T14:00:57.413Z,9.05
2022-12-15T14:03:24.326Z,8.10
2022-12-15T14:05:56.386Z,7.88
2022-12-15T14:08:25.571Z,7.93
2022-12-15T14:10:57.805Z,8.25
2022-12-15T14:13:28.595Z,7.70
2022-12-15T14:15:58.776Z,6.78
2022-12-15T14:18:32.711Z,8.55
2022-12-15T14:21:01.262Z,7.25
2022-12-15T14:23:30.690Z,8.63
2022-12-15T14:26:10.280Z,8.73
2022-12-15T14:28:39.306Z,9.43
2022-12-15T14:31:11.368Z,9.57
2022-12-15T14:33:41.835Z,10.00
2022-12-15T14:36:12.216Z,9.82
2022-12-15T14:38:50.587Z,12.00
2022-12-15T14:41:27.341Z,10.82
2022-12-15T14:44:36.489Z,10.65
2022-12-15T14:46:48.387Z,11.82
2022-12-15T14:49:29.403Z,11.43
2022-12-15T14:52:02.997Z,13.18
2022-12-15T14:54:38.869Z,11.20
2022-12-15T14:57:20.250Z,10.85
2022-12-15T14:59:47.348Z,10.30
2022-12-15T15:02:21.939Z,10.57
2022-12-15T15:03:14.739Z,13.02
2022-12-15T15:05:00.221Z,10.48
2022-12-15T15:07:27.485Z,10.77
2022-12-15T15:09:54.231Z,10.02
2022-12-15T15:12:23.523Z,9.57
2022-12-15T15:14:58.807Z,9.98
2022-12-15T15:17:42.668Z,8.98
2022-12-15T15:20:35.678Z,8.77
2022-12-15T15:23:08.347Z,8.48
2022-12-15T15:25:40.223Z,9.25
2022-12-15T15:28:19.621Z,8.52
2022-12-15T15:30:48.587Z,9.43
2022-12-15T15:33:16.291Z,9.48
2022-12-15T15:35:44.660Z,9.45
2022-12-15T15:38:31.058Z,10.23
2022-12-15T15:40:59.949Z,10.88
2022-12-15T15:43:28.553Z,12.20
2022-12-15T15:46:05.866Z,11.70
2022-12-15T15:48:39.137Z,10.07
2022-12-15T15:51:06.014Z,9.93
2022-12-15T15:53:33.960Z,10.18
2022-12-15T15:56:02.562Z,10.02
2022-12-15T15:58:29.381Z,10.43
2022-12-15T16:00:56.050Z,9.80
2022-12-15T16:03:22.746Z,10.73
2022-12-15T16:05:49.394Z,9.98
2022-12-15T16:08:19.894Z,9.30
2022-12-15T16:10:48.289Z,10.10
2022-12-15T16:13:20.805Z,8.88
2022-12-15T16:15:50.562Z,10.38
2022-12-15T16:18:17.038Z,11.73
2022-12-15T16:20:46.529Z,10.98
2022-12-15T16:23:19.711Z,10.00
2022-12-15T16:25:58.231Z,11.18
2022-12-15T16:28:27.852Z,11.20
2022-12-15T16:30:55.763Z,11.00
2022-12-15T16:33:22.226Z,9.82
2022-12-15T16:35:49.789Z,11.27
2022-12-15T16:38:25.431Z,12.88
2022-12-15T16:40:52.552Z,13.10
2022-12-15T16:43:24.401Z,11.73
2022-12-15T16:45:52.619Z,14.30
2022-12-15T16:48:20.291Z,13.27
2022-12-15T16:50:52.102Z,13.68
2022-12-15T16:53:24.498Z,13.15
2022-12-15T16:55:56.361Z,12.68
2022-12-15T16:58:24.128Z,12.57
2022-12-15T17:00:51.339Z,11.80
2022-12-15T17:03:19.958Z,12.35
2022-12-15T17:05:50.578Z,11.77
2022-12-15T17:08:23.579Z,12.25
2022-12-15T17:10:51.078Z,13.10
2022-12-15T17:13:30.398Z,11.32
2022-12-15T17:16:03.173Z,11.65
2022-12-15T17:18:30.086Z,12.65
2022-12-15T17:21:04.284Z,13.07
2022-12-15T17:23:31.545Z,13.70
2022-12-15T17:26:22.792Z,12.68
2022-12-15T17:28:44.968Z,13.45
2022-12-15T17:31:18.845Z,12.38
2022-12-15T17:33:45.426Z,12.38
2022-12-15T17:36:16.094Z,13.35
2022-12-15T17:38:42.828Z,13.10
2022-12-15T17:41:34.983Z,13.63
2022-12-15T17:44:31.061Z,11.80
2022-12-15T17:46:46.066Z,11.80
2022-12-15T17:49:12.584Z,11.40
2022-12-15T17:51:39.561Z,10.30
2022-12-15T17:54:06.025Z,10.00
2022-12-15T17:56:32.472Z,8.00
2022-12-15T17:58:58.885Z,8.27
2022-12-15T18:01:25.454Z,7.45
2022-12-15T18:03:51.986Z,7.63
2022-12-15T18:06:18.474Z,7.93
2022-12-15T18:08:45.303Z,7.20
2022-12-15T18:11:16.554Z,7.15
2022-12-15T18:13:43.541Z,6.85
2022-12-15T18:16:09.991Z,6.60
2022-12-15T18:18:36.478Z,6.82
2022-12-15T18:21:12.366Z,6.97
2022-12-15T18:23:39.355Z,6.75
2022-12-15T18:26:06.005Z,6.68
2022-12-15T18:28:35.160Z,7.75
2022-12-15T18:31:10.600Z,8.25
2022-12-15T18:33:37.096Z,9.07
2022-12-15T18:36:03.646Z,10.25
2022-12-15T18:38:30.077Z,8.88
2022-12-15T18:41:00.721Z,7.82
2022-12-15T18:43:34.629Z,7.28
2022-12-15T18:46:01.574Z,7.13
2022-12-15T18:48:34.503Z,7.57
2022-12-15T18:51:03.181Z,7.97
2022-12-15T18:53:35.169Z,8.50
2022-12-15T18:56:04.939Z,7.63
2022-12-15T18:58:35.573Z,6.65
2022-12-15T19:01:04.330Z,6.60
2022-12-15T19:03:32.097Z,6.45
2022-12-15T19:06:03.714Z,7.15
2022-12-15T19:08:31.326Z,6.95
2022-12-15T19:11:05.268Z,6.30
2022-12-15T19:13:34.925Z,6.10
2022-12-15T19:16:03.750Z,6.05
2022-12-15T19:18:30.715Z,5.55
2022-12-15T19:20:57.187Z,5.53
2022-12-15T19:23:23.897Z,5.22
2022-12-15T19:25:51.748Z,4.32
2022-12-15T19:28:21.051Z,4.28
2022-12-15T19:30:47.733Z,4.63
2022-12-15T19:33:15.925Z,5.38
2022-12-15T19:35:46.319Z,4.95
2022-12-15T19:38:20.860Z,5.35
2022-12-15T19:40:47.755Z,4.32
2022-12-15T19:43:16.334Z,5.20
2022-12-15T19:45:43.107Z,4.72
2022-12-15T19:48:10.880Z,4.47
2022-12-15T19:50:38.231Z,5.38
2022-12-15T19:53:11.366Z,5.20
2022-12-15T19:55:38.656Z,5.70
2022-12-15T19:58:27.039Z,6.63
2022-12-15T20:00:55.611Z,5.82
2022-12-15T20:03:22.929Z,6.47
2022-12-15T20:05:52.110Z,6.50
2022-12-15T20:08:22.173Z,5.68
2022-12-15T20:10:48.910Z,5.38
2022-12-15T20:13:15.717Z,4.95
2022-12-15T20:15:42.500Z,5.15
2022-12-15T20:18:09.392Z,5.32
2022-12-15T20:20:36.812Z,5.40
2022-12-15T20:23:12.307Z,5.53
2022-12-15T20:25:40.631Z,5.53
2022-12-15T20:28:17.756Z,7.22
2022-12-15T20:30:45.615Z,5.45
2022-12-15T20:33:13.099Z,5.18
2022-12-15T20:35:40.773Z,5.38
2022-12-15T20:38:19.091Z,5.43
2022-12-15T20:40:45.591Z,6.15
2022-12-15T20:43:15.844Z,6.22
2022-12-15T20:45:42.434Z,6.05
2022-12-15T20:48:12.542Z,6.10
2022-12-15T20:50:43.093Z,6.57
2022-12-15T20:53:18.854Z,5.88
2022-12-15T20:55:48.093Z,5.93
2022-12-15T20:58:15.431Z,6.90
2022-12-15T21:00:42.443Z,5.68
2022-12-15T21:03:25.518Z,6.47
2022-12-15T21:05:55.101Z,6.60
2022-12-15T21:08:25.115Z,7.05
2022-12-15T21:10:52.976Z,7.10
2022-12-15T21:13:24.689Z,6.45
2022-12-15T21:18:57.659Z,6.93
2022-12-15T21:21:12.088Z,6.63
2022-12-15T21:23:42.596Z,6.93
2022-12-15T21:26:10.394Z,6.63
2022-12-15T21:28:36.888Z,7.43
2022-12-15T21:31:03.367Z,6.97
2022-12-15T21:33:30.054Z,6.70
2022-12-15T21:35:56.603Z,7.35
2022-12-15T21:38:33.518Z,7.32
2022-12-15T21:41:04.190Z,7.13
2022-12-15T21:43:35.054Z,7.00
2022-12-15T21:46:03.755Z,5.60
2022-12-15T21:48:30.523Z,7.40
2022-12-15T21:50:57.368Z,7.80
2022-12-15T21:53:23.899Z,7.18
2022-12-15T21:55:50.409Z,7.38
2022-12-15T21:58:21.507Z,6.93
2022-12-15T22:00:48.088Z,7.82
2022-12-15T22:03:14.633Z,7.47
2022-12-15T22:05:41.183Z,6.95
2022-12-15T22:08:17.778Z,8.38
2022-12-15T22:10:45.538Z,8.43
2022-12-15T22:13:17.489Z,8.88
2022-12-15T22:15:44.209Z,8.00
2022-12-15T22:18:12.217Z,7.97
2022-12-15T22:20:39.085Z,9.52
2022-12-15T22:23:05.532Z,8.57
2022-12-15T22:25:31.999Z,8.10
2022-12-15T22:27:58.416Z,7.82
2022-12-15T22:30:26.574Z,8.40
2022-12-15T22:32:53.920Z,7.80
2022-12-15T22:35:22.902Z,8.75
2022-12-15T22:37:49.526Z,8.40
2022-12-15T22:40:16.354Z,8.57
2022-12-15T22:42:48.510Z,8.85
2022-12-15T22:45:20.522Z,8.93
2022-12-15T22:47:49.027Z,8.75
2022-12-15T22:50:26.177Z,8.90
2022-12-15T22:52:52.980Z,9.60
2022-12-15T22:55:22.833Z,9.80
2022-12-15T22:58:01.148Z,9.07
2022-12-15T23:00:27.641Z,10.90
2022-12-15T23:02:54.381Z,9.68
2022-12-15T23:05:21.203Z,9.73
2022-12-15T23:07:47.712Z,9.20
2022-12-15T23:10:16.902Z,8.77
2022-12-15T23:12:43.488Z,9.60
2022-12-15T23:15:10.444Z,9.30
2022-12-15T23:17:36.838Z,9.85
2022-12-15T23:20:03.576Z,10.48
2022-12-15T23:22:29.965Z,10.00
2022-12-15T23:24:56.376Z,10.55
2022-12-15T23:27:22.813Z,8.80
2022-12-15T23:29:49.241Z,9.48
2022-12-15T23:32:15.645Z,9.30
2022-12-15T23:34:42.103Z,9.38
2022-12-15T23:37:08.529Z,9.98
2022-12-15T23:39:34.988Z,8.35
2022-12-15T23:42:01.461Z,8.73
2022-12-15T23:44:27.986Z,8.23
2022-12-15T23:46:54.466Z,8.93
2022-12-15T23:49:20.984Z,8.93
2022-12-15T23:51:47.402Z,8.88
2022-12-15T23:54:13.996Z,9.45
2022-12-15T23:56:40.458Z,9.10
2022-12-15T23:59:07.201Z,9.45
